createdAt,value
2023-04-13T00:00:46.703Z,6.10
2023-04-13T00:03:13.504Z,6.07
2023-04-13T00:05:40.208Z,5.35
2023-04-13T00:08:07.645Z,6.00
2023-04-13T00:10:41.225Z,4.97
2023-04-13T00:13:10.142Z,4.63
2023-04-13T00:15:40.035Z,4.88
2023-04-13T00:18:10.800Z,4.72
2023-04-13T00:20:38.275Z,4.55
2023-04-13T00:23:04.815Z,4.60
2023-04-13T00:25:31.251Z,4.15
2023-04-13T00:27:57.713Z,4.22
2023-04-13T00:30:24.273Z,3.72
2023-04-13T00:32:51.094Z,4.30
2023-04-13T00:35:19.804Z,3.80
2023-04-13T00:37:49.091Z,3.97
2023-04-13T00:40:18.537Z,3.83
2023-04-13T00:42:49.751Z,3.85
2023-04-13T00:45:18.106Z,4.20
2023-04-13T00:47:48.717Z,3.60
2023-04-13T00:50:20.622Z,3.17
2023-04-13T00:52:48.239Z,2.72
2023-04-13T00:55:20.519Z,3.10
2023-04-13T00:57:50.016Z,3.17
2023-04-13T01:00:17.552Z,2.75
2023-04-13T01:02:44.334Z,2.60
2023-04-13T01:05:15.619Z,2.55
2023-04-13T01:07:53.809Z,2.60
2023-04-13T01:10:42.729Z,2.70
2023-04-13T01:13:26.532Z,2.20
2023-04-13T01:16:05.946Z,2.53
2023-04-13T01:18:35.428Z,1.95
2023-04-13T01:21:02.335Z,2.15
2023-04-13T01:23:51.408Z,1.88
2023-04-13T01:26:17.841Z,1.65
2023-04-13T01:28:45.233Z,1.58
2023-04-13T01:31:12.704Z,1.60
2023-04-13T01:33:40.607Z,2.20
2023-04-13T01:36:08.749Z,1.65
2023-04-13T01:38:35.661Z,1.50
2023-04-13T01:41:02.496Z,1.80
2023-04-13T01:43:29.001Z,1.60
2023-04-13T01:46:04.770Z,1.30
2023-04-13T01:48:37.037Z,1.55
2023-04-13T01:51:08.329Z,1.80
2023-04-13T01:53:42.013Z,1.40
2023-04-13T01:56:09.192Z,1.50
2023-04-13T01:58:36.400Z,1.23
2023-04-13T02:01:07.576Z,1.70
2023-04-13T02:03:36.218Z,1.58
2023-04-13T02:06:03.158Z,1.15
2023-04-13T02:08:32.937Z,1.20
2023-04-13T02:11:00.912Z,0.98
2023-04-13T02:13:27.387Z,1.52
2023-04-13T02:15:53.949Z,1.23
2023-04-13T02:18:20.601Z,1.40
2023-04-13T02:20:47.108Z,1.30
2023-04-13T02:23:17.829Z,1.40
2023-04-13T02:25:47.111Z,1.33
2023-04-13T02:28:15.939Z,1.15
2023-04-13T02:30:42.501Z,1.13
2023-04-13T02:33:09.584Z,1.48
2023-04-13T02:35:38.799Z,1.20
2023-04-13T02:38:06.699Z,1.30
2023-04-13T02:40:33.215Z,1.20
2023-04-13T02:43:00.104Z,1.50
2023-04-13T02:45:27.246Z,1.30
2023-04-13T02:47:53.877Z,1.52
2023-04-13T02:50:20.655Z,1.40
2023-04-13T02:52:47.207Z,1.58
2023-04-13T02:55:13.740Z,1.45
2023-04-13T02:57:42.283Z,1.55
2023-04-13T03:00:10.412Z,1.40
2023-04-13T03:02:39.966Z,1.52
2023-04-13T03:05:06.847Z,1.60
2023-04-13T03:07:34.093Z,1.75
2023-04-13T03:10:02.510Z,1.50
2023-04-13T03:12:28.941Z,1.63
2023-04-13T03:14:55.456Z,1.50
2023-04-13T03:17:21.888Z,1.67
2023-04-13T03:19:49.562Z,1.40
2023-04-13T03:22:16.120Z,1.40
2023-04-13T03:24:42.509Z,1.60
2023-04-13T03:27:08.942Z,1.52
2023-04-13T03:29:35.480Z,1.42
2023-04-13T03:32:01.876Z,1.80
2023-04-13T03:34:28.481Z,1.50
2023-04-13T03:36:54.985Z,1.35
2023-04-13T03:39:21.395Z,1.42
2023-04-13T03:41:47.931Z,1.83
2023-04-13T03:44:14.338Z,1.80
2023-04-13T03:46:41.370Z,1.60
2023-04-13T03:49:09.686Z,1.50
2023-04-13T03:51:36.874Z,1.60
2023-04-13T03:54:03.616Z,1.90
2023-04-13T03:56:30.771Z,1.20
2023-04-13T03:58:57.289Z,1.50
2023-04-13T04:01:23.784Z,1.60
2023-04-13T04:03:50.308Z,1.33
2023-04-13T04:06:16.832Z,1.30
2023-04-13T04:08:45.264Z,1.63
2023-04-13T04:11:11.798Z,1.50
2023-04-13T04:13:38.408Z,1.63
2023-04-13T04:16:07.250Z,1.42
2023-04-13T04:18:33.808Z,1.50
2023-04-13T04:21:02.712Z,1.55
2023-04-13T04:23:29.939Z,1.30
2023-04-13T04:25:59.526Z,1.30
2023-04-13T04:28:26.061Z,1.40
2023-04-13T04:30:55.320Z,1.50
2023-04-13T04:33:24.985Z,1.67
2023-04-13T04:35:51.690Z,1.10
2023-04-13T04:38:18.683Z,1.17
2023-04-13T04:40:45.662Z,1.20
2023-04-13T04:43:15.120Z,0.98
2023-04-13T04:45:43.742Z,1.10
2023-04-13T04:48:11.815Z,1.17
2023-04-13T04:50:38.662Z,1.00
2023-04-13T04:53:05.344Z,1.23
2023-04-13T04:55:32.180Z,0.80
2023-04-13T04:57:58.676Z,1.10
2023-04-13T05:00:30.755Z,1.00
2023-04-13T05:02:57.844Z,0.85
2023-04-13T05:05:27.096Z,0.80
2023-04-13T05:07:53.648Z,1.08
2023-04-13T05:10:20.919Z,1.00
2023-04-13T05:12:47.486Z,0.88
2023-04-13T05:15:13.897Z,0.80
2023-04-13T05:17:41.836Z,1.00
2023-04-13T05:20:08.928Z,0.95
2023-04-13T05:22:35.359Z,1.02
2023-04-13T05:25:01.854Z,1.30
2023-04-13T05:27:28.398Z,0.90
2023-04-13T05:29:54.852Z,0.93
2023-04-13T05:32:21.346Z,0.90
2023-04-13T05:34:47.919Z,0.98
2023-04-13T05:37:15.512Z,1.23
2023-04-13T05:39:42.251Z,0.65
2023-04-13T05:42:08.692Z,0.80
2023-04-13T05:44:35.079Z,0.88
2023-04-13T05:47:02.533Z,0.70
2023-04-13T05:49:29.223Z,0.80
2023-04-13T05:51:55.702Z,0.80
2023-04-13T05:54:22.228Z,0.63
2023-04-13T05:56:48.731Z,0.98
2023-04-13T05:59:16.195Z,0.90
2023-04-13T06:01:42.653Z,0.88
2023-04-13T06:04:11.072Z,0.90
2023-04-13T06:06:38.063Z,0.95
2023-04-13T06:09:05.771Z,0.85
2023-04-13T06:11:32.237Z,0.70
2023-04-13T06:14:00.168Z,1.10
2023-04-13T06:16:26.956Z,1.13
2023-04-13T06:18:53.498Z,0.70
2023-04-13T06:21:20.333Z,1.10
2023-04-13T06:23:46.865Z,1.00
2023-04-13T06:26:13.385Z,0.90
2023-04-13T06:28:39.815Z,1.08
2023-04-13T06:31:06.510Z,1.88
2023-04-13T06:33:33.734Z,1.15
2023-04-13T06:36:00.185Z,1.10
2023-04-13T06:38:27.467Z,1.05
2023-04-13T06:40:53.955Z,0.90
2023-04-13T06:43:29.238Z,0.90
2023-04-13T06:46:00.729Z,1.10
2023-04-13T06:48:27.361Z,0.82
2023-04-13T06:50:58.970Z,1.00
2023-04-13T06:53:25.500Z,0.80
2023-04-13T06:55:52.203Z,0.90
2023-04-13T06:58:18.843Z,0.85
2023-04-13T07:00:45.430Z,1.17
2023-04-13T07:03:12.073Z,1.05
2023-04-13T07:05:39.037Z,0.90
2023-04-13T07:08:06.431Z,1.00
2023-04-13T07:10:32.901Z,1.30
2023-04-13T07:12:59.410Z,1.20
2023-04-13T07:15:26.021Z,1.30
2023-04-13T07:17:52.650Z,1.25
2023-04-13T07:20:19.241Z,1.50
2023-04-13T07:22:45.900Z,1.50
2023-04-13T07:25:12.407Z,1.50
2023-04-13T07:27:39.228Z,1.73
2023-04-13T07:30:08.323Z,1.30
2023-04-13T07:32:35.242Z,1.63
2023-04-13T07:35:02.255Z,1.58
2023-04-13T07:37:29.727Z,1.40
2023-04-13T07:39:56.226Z,1.60
2023-04-13T07:42:22.815Z,1.65
2023-04-13T07:44:49.486Z,1.40
2023-04-13T07:47:16.729Z,1.48
2023-04-13T07:49:43.200Z,1.40
2023-04-13T07:52:09.725Z,1.58
2023-04-13T07:54:36.372Z,1.90
2023-04-13T07:57:03.071Z,1.60
2023-04-13T07:59:29.917Z,1.70
2023-04-13T08:01:56.587Z,1.40
2023-04-13T08:04:23.485Z,1.27
2023-04-13T08:06:49.963Z,1.15
2023-04-13T08:09:16.538Z,1.20
2023-04-13T08:11:43.233Z,1.40
2023-04-13T08:14:11.616Z,1.38
2023-04-13T08:16:38.292Z,1.40
2023-04-13T08:19:04.836Z,1.27
2023-04-13T08:21:32.751Z,1.50
2023-04-13T08:23:59.294Z,1.70
2023-04-13T08:26:26.304Z,1.88
2023-04-13T08:28:57.514Z,2.10
2023-04-13T08:31:24.303Z,1.67
2023-04-13T08:33:51.012Z,1.85
2023-04-13T08:36:18.102Z,2.05
2023-04-13T08:38:44.621Z,1.70
2023-04-13T08:41:11.279Z,1.75
2023-04-13T08:43:38.638Z,1.60
2023-04-13T08:46:05.954Z,1.77
2023-04-13T08:48:46.204Z,2.17
2023-04-13T08:51:16.906Z,1.50
2023-04-13T08:53:43.407Z,1.90
2023-04-13T08:56:13.207Z,1.50
2023-04-13T08:58:43.029Z,1.85
2023-04-13T09:01:13.657Z,1.98
2023-04-13T09:04:10.469Z,2.13
2023-04-13T09:06:41.492Z,1.80
2023-04-13T09:09:10.857Z,1.75
2023-04-13T09:11:37.997Z,2.00
2023-04-13T09:14:04.559Z,1.80
2023-04-13T09:16:38.826Z,1.75
2023-04-13T09:19:07.564Z,1.80
2023-04-13T09:21:38.195Z,1.88
2023-04-13T09:24:05.949Z,1.70
2023-04-13T09:26:42.238Z,2.05
2023-04-13T09:29:14.900Z,1.65
2023-04-13T09:31:43.586Z,1.08
2023-04-13T09:34:11.893Z,1.30
2023-04-13T09:36:49.580Z,1.40
2023-04-13T09:39:28.093Z,1.45
2023-04-13T09:41:55.422Z,1.10
2023-04-13T09:44:25.752Z,1.13
2023-04-13T09:47:02.064Z,1.00
2023-04-13T09:49:42.241Z,1.20
2023-04-13T09:52:24.160Z,1.10
2023-04-13T09:54:55.172Z,0.88
2023-04-13T09:57:29.068Z,0.93
2023-04-13T09:59:57.675Z,0.98
2023-04-13T10:02:24.338Z,0.80
2023-04-13T10:04:51.631Z,0.90
2023-04-13T10:07:18.208Z,0.82
2023-04-13T10:09:44.960Z,1.10
2023-04-13T10:12:12.225Z,1.00
2023-04-13T10:14:40.421Z,1.10
2023-04-13T10:17:15.835Z,1.10
2023-04-13T10:19:46.394Z,1.10
2023-04-13T10:22:13.602Z,1.13
2023-04-13T10:24:40.143Z,0.90
2023-04-13T10:27:16.930Z,1.30
2023-04-13T10:29:43.568Z,0.98
2023-04-13T10:32:20.261Z,1.50
2023-04-13T10:34:47.581Z,1.05
2023-04-13T10:37:28.778Z,1.20
2023-04-13T10:40:06.269Z,1.10
2023-04-13T10:42:51.132Z,1.40
2023-04-13T10:45:27.636Z,1.52
2023-04-13T10:47:55.560Z,1.58
2023-04-13T10:50:27.793Z,1.55
2023-04-13T10:52:56.262Z,1.73
2023-04-13T10:55:27.206Z,1.40
2023-04-13T10:57:55.237Z,1.50
2023-04-13T11:00:27.329Z,1.50
2023-04-13T11:02:58.889Z,1.73
2023-04-13T11:05:27.238Z,1.88
2023-04-13T11:07:55.632Z,1.83
2023-04-13T11:10:28.994Z,2.10
2023-04-13T11:12:57.495Z,2.05
2023-04-13T11:15:29.201Z,2.20
2023-04-13T11:17:58.061Z,1.90
2023-04-13T11:20:32.464Z,2.45
2023-04-13T11:23:00.138Z,2.15
2023-04-13T11:25:26.862Z,2.00
2023-04-13T11:28:02.126Z,2.08
2023-04-13T11:30:28.761Z,2.40
2023-04-13T11:32:58.470Z,2.00
2023-04-13T11:35:25.252Z,2.00
2023-04-13T11:37:53.913Z,2.15
2023-04-13T11:40:25.732Z,1.90
2023-04-13T11:42:54.034Z,1.75
2023-04-13T11:45:22.734Z,1.55
2023-04-13T11:47:50.400Z,2.10
2023-04-13T11:50:17.633Z,2.20
2023-04-13T11:52:46.484Z,1.70
2023-04-13T11:55:22.570Z,1.50
2023-04-13T11:57:51.180Z,4.60
2023-04-13T12:00:24.318Z,2.92
2023-04-13T12:03:01.824Z,6.57
2023-04-13T12:05:32.374Z,5.13
2023-04-13T12:08:00.625Z,4.63
2023-04-13T12:10:39.518Z,2.85
2023-04-13T12:16:01.793Z,2.00
2023-04-13T12:18:37.036Z,2.33
2023-04-13T12:21:05.899Z,2.28
2023-04-13T12:23:32.803Z,2.65
2023-04-13T12:26:24.487Z,2.40
2023-04-13T12:28:49.338Z,2.05
2023-04-13T12:31:16.127Z,2.25
2023-04-13T12:33:42.590Z,2.25
2023-04-13T12:36:11.286Z,2.13
2023-04-13T12:38:38.233Z,2.22
2023-04-13T12:41:08.371Z,2.30
2023-04-13T12:43:34.792Z,2.00
2023-04-13T12:46:01.613Z,2.08
2023-04-13T12:48:28.348Z,2.20
2023-04-13T12:50:54.783Z,2.60
2023-04-13T12:53:21.708Z,2.50
2023-04-13T12:55:48.132Z,2.03
2023-04-13T12:58:14.542Z,2.03
2023-04-13T13:00:41.122Z,2.08
2023-04-13T13:03:14.284Z,2.35
2023-04-13T13:05:41.974Z,2.47
2023-04-13T13:08:09.195Z,2.50
2023-04-13T13:10:37.054Z,3.08
2023-04-13T13:13:04.277Z,2.75
2023-04-13T13:15:31.878Z,2.97
2023-04-13T13:18:00.904Z,2.80
2023-04-13T13:20:27.439Z,2.78
2023-04-13T13:22:53.859Z,3.00
2023-04-13T13:25:20.375Z,2.80
2023-04-13T13:30:16.686Z,2.40
2023-04-13T13:32:43.205Z,2.38
2023-04-13T13:35:10.684Z,2.65
2023-04-13T13:37:37.248Z,2.70
2023-04-13T13:40:15.847Z,2.80
2023-04-13T13:42:51.747Z,2.88
2023-04-13T13:45:18.996Z,2.60
2023-04-13T13:47:49.970Z,2.80
2023-04-13T13:50:16.643Z,2.53
2023-04-13T13:52:51.884Z,2.65
2023-04-13T13:55:28.608Z,2.85
2023-04-13T13:57:55.680Z,2.53
2023-04-13T14:00:23.396Z,2.35
2023-04-13T14:02:50.028Z,2.58
2023-04-13T14:05:17.676Z,2.42
2023-04-13T14:07:45.305Z,2.20
2023-04-13T14:10:12.372Z,2.65
2023-04-13T14:12:40.720Z,2.40
2023-04-13T14:15:08.590Z,2.20
2023-04-13T14:17:36.953Z,1.90
2023-04-13T14:20:13.038Z,2.20
2023-04-13T14:22:41.304Z,2.50
2023-04-13T14:25:11.544Z,1.92
2023-04-13T14:27:38.466Z,2.33
2023-04-13T14:30:05.576Z,2.67
2023-04-13T14:32:32.461Z,2.25
2023-04-13T14:35:00.311Z,2.67
2023-04-13T14:37:28.226Z,2.70
2023-04-13T14:39:55.015Z,2.13
2023-04-13T14:42:23.754Z,2.08
2023-04-13T14:44:51.646Z,2.10
2023-04-13T14:47:18.282Z,2.60
2023-04-13T14:49:44.748Z,2.30
2023-04-13T14:52:11.484Z,2.53
2023-04-13T14:54:39.104Z,2.60
2023-04-13T14:57:05.944Z,2.40
2023-04-13T14:59:33.000Z,2.38
2023-04-13T15:02:01.139Z,2.50
2023-04-13T15:04:29.856Z,2.10
2023-04-13T15:06:56.627Z,1.77
2023-04-13T15:09:23.062Z,2.03
2023-04-13T15:11:50.559Z,2.17
2023-04-13T15:14:17.007Z,1.73
2023-04-13T15:16:43.568Z,2.00
2023-04-13T15:19:10.399Z,2.15
2023-04-13T15:21:36.872Z,3.70
2023-04-13T15:24:03.405Z,2.53
2023-04-13T15:26:30.107Z,9.35
2023-04-13T15:28:56.633Z,3.80
2023-04-13T15:31:23.218Z,2.13
2023-04-13T15:33:49.695Z,2.35
2023-04-13T15:36:16.541Z,5.53
2023-04-13T15:38:43.230Z,6.90
2023-04-13T15:41:11.223Z,4.85
2023-04-13T15:43:38.129Z,2.78
2023-04-13T15:46:04.787Z,3.33
2023-04-13T15:48:31.443Z,3.20
2023-04-13T15:50:59.298Z,4.78
2023-04-13T15:53:26.945Z,5.15
2023-04-13T15:55:53.718Z,4.75
2023-04-13T15:58:20.267Z,7.15
2023-04-13T16:00:46.907Z,8.38
2023-04-13T16:03:13.843Z,6.85
2023-04-13T16:05:40.377Z,3.50
2023-04-13T16:08:07.993Z,3.00
2023-04-13T16:10:34.704Z,2.58
2023-04-13T16:13:02.959Z,2.50
2023-04-13T16:15:29.574Z,1.90
2023-04-13T16:17:56.947Z,3.13
2023-04-13T16:20:26.902Z,2.20
2023-04-13T16:22:58.073Z,1.92
2023-04-13T16:25:24.597Z,2.17
2023-04-13T16:27:52.433Z,1.98
2023-04-13T16:30:21.194Z,2.03
2023-04-13T16:32:49.087Z,1.75
2023-04-13T16:35:16.105Z,1.50
2023-04-13T16:37:42.977Z,1.92
2023-04-13T16:40:13.016Z,1.65
2023-04-13T16:42:40.529Z,2.20
2023-04-13T16:45:10.850Z,1.92
2023-04-13T16:47:38.934Z,2.57
2023-04-13T16:50:07.221Z,1.98
2023-04-13T16:52:38.732Z,1.80
2023-04-13T16:55:06.041Z,2.00
2023-04-13T16:57:32.830Z,2.35
2023-04-13T17:00:01.234Z,2.30
2023-04-13T17:02:31.580Z,2.63
2023-04-13T17:04:58.279Z,2.90
2023-04-13T17:07:26.919Z,2.50
2023-04-13T17:09:53.661Z,2.22
2023-04-13T17:12:22.337Z,2.50
2023-04-13T17:14:52.272Z,8.95
2023-04-13T17:17:18.716Z,4.20
2023-04-13T17:19:45.167Z,4.88
2023-04-13T17:22:11.748Z,2.60
2023-04-13T17:24:38.321Z,2.10
2023-04-13T17:27:04.836Z,2.33
2023-04-13T17:29:33.555Z,2.55
2023-04-13T17:32:00.137Z,2.45
2023-04-13T17:34:27.060Z,2.22
2023-04-13T17:36:53.455Z,2.30
2023-04-13T17:39:19.890Z,2.60
2023-04-13T17:41:47.463Z,2.50
2023-04-13T17:44:15.118Z,2.45
2023-04-13T17:46:41.971Z,2.47
2023-04-13T17:49:08.896Z,2.55
2023-04-13T17:51:35.473Z,2.75
2023-04-13T17:54:01.994Z,3.08
2023-04-13T17:56:28.650Z,3.35
2023-04-13T17:58:55.131Z,3.42
2023-04-13T18:01:25.681Z,2.65
2023-04-13T18:03:53.256Z,2.35
2023-04-13T18:06:19.821Z,2.60
2023-04-13T18:08:46.274Z,2.47
2023-04-13T18:11:12.676Z,2.80
2023-04-13T18:13:40.276Z,2.58
2023-04-13T18:16:07.016Z,2.67
2023-04-13T18:18:33.590Z,3.20
2023-04-13T18:21:00.108Z,2.70
2023-04-13T18:23:26.519Z,3.03
2023-04-13T18:25:53.019Z,2.72
2023-04-13T18:28:19.552Z,2.53
2023-04-13T18:30:46.189Z,3.10
2023-04-13T18:33:15.281Z,2.90
2023-04-13T18:35:42.901Z,2.72
2023-04-13T18:38:09.957Z,2.70
2023-04-13T18:40:36.901Z,2.80
2023-04-13T18:43:03.405Z,3.17
2023-04-13T18:45:29.812Z,2.92
2023-04-13T18:47:56.372Z,3.28
2023-04-13T18:50:22.873Z,3.03
2023-04-13T18:52:49.427Z,3.60
2023-04-13T18:55:16.060Z,3.53
2023-04-13T18:57:42.455Z,3.95
2023-04-13T19:00:13.484Z,4.30
2023-04-13T19:02:46.384Z,4.50
2023-04-13T19:05:13.610Z,5.15
2023-04-13T19:07:40.323Z,5.00
2023-04-13T19:10:07.016Z,5.55
2023-04-13T19:12:33.910Z,5.70
2023-04-13T19:15:00.453Z,5.10
2023-04-13T19:17:27.135Z,4.47
2023-04-13T19:19:54.434Z,3.90
2023-04-13T19:22:21.168Z,5.28
2023-04-13T19:24:47.673Z,5.32
2023-04-13T19:27:14.286Z,4.47
2023-04-13T19:29:41.096Z,4.50
2023-04-13T19:32:10.877Z,4.50
2023-04-13T19:34:37.502Z,4.63
2023-04-13T19:37:03.933Z,4.30
2023-04-13T19:39:30.464Z,4.50
2023-04-13T19:41:57.076Z,4.60
2023-04-13T19:44:23.657Z,4.32
2023-04-13T19:46:50.317Z,4.05
2023-04-13T19:49:17.146Z,3.47
2023-04-13T19:51:43.638Z,3.58
2023-04-13T19:54:10.168Z,3.80
2023-04-13T19:56:36.578Z,3.53
2023-04-13T19:59:04.168Z,4.00
2023-04-13T20:01:32.876Z,4.28
2023-04-13T20:04:00.906Z,4.03
2023-04-13T20:06:27.735Z,4.07
2023-04-13T20:08:54.247Z,4.35
2023-04-13T20:11:21.039Z,4.28
2023-04-13T20:13:47.465Z,4.07
2023-04-13T20:16:13.911Z,4.53
2023-04-13T20:18:40.531Z,4.30
2023-04-13T20:21:08.137Z,5.60
2023-04-13T20:23:36.135Z,4.63
2023-04-13T20:26:02.619Z,4.90
2023-04-13T20:28:29.072Z,4.90
2023-04-13T20:30:55.484Z,4.97
2023-04-13T20:33:21.968Z,5.40
2023-04-13T20:35:48.382Z,5.18
2023-04-13T20:38:14.958Z,4.38
2023-04-13T20:40:41.729Z,5.22
2023-04-13T20:43:08.374Z,5.53
2023-04-13T20:45:36.309Z,4.55
2023-04-13T20:48:48.420Z,5.68
2023-04-13T20:50:50.202Z,4.75
2023-04-13T20:53:17.545Z,5.25
2023-04-13T20:55:44.100Z,4.85
2023-04-13T20:58:10.821Z,4.53
2023-04-13T21:00:38.233Z,4.65
2023-04-13T21:03:05.009Z,4.82
2023-04-13T21:05:31.561Z,4.30
2023-04-13T21:07:58.227Z,5.68
2023-04-13T21:10:24.686Z,5.72
2023-04-13T21:12:51.844Z,5.20
2023-04-13T21:15:18.338Z,5.60
2023-04-13T21:17:44.846Z,5.28
2023-04-13T21:20:12.624Z,5.20
2023-04-13T21:22:39.195Z,5.43
2023-04-13T21:25:06.217Z,6.22
2023-04-13T21:27:32.671Z,6.28
2023-04-13T21:30:00.007Z,6.72
2023-04-13T21:32:26.682Z,7.55
2023-04-13T21:34:54.940Z,7.00
2023-04-13T21:37:21.763Z,7.40
2023-04-13T21:39:48.188Z,7.32
2023-04-13T21:42:14.644Z,5.60
2023-04-13T21:44:41.103Z,5.35
2023-04-13T21:47:07.533Z,4.95
2023-04-13T21:49:33.958Z,5.28
2023-04-13T21:52:00.509Z,5.00
2023-04-13T21:54:26.963Z,5.03
2023-04-13T21:56:53.348Z,5.10
2023-04-13T21:59:19.764Z,5.55
2023-04-13T22:01:46.926Z,5.05
2023-04-13T22:04:14.037Z,5.30
2023-04-13T22:06:40.674Z,5.38
2023-04-13T22:09:07.148Z,5.40
2023-04-13T22:11:33.628Z,4.95
2023-04-13T22:14:00.602Z,4.63
2023-04-13T22:16:28.292Z,4.68
2023-04-13T22:18:54.855Z,4.28
2023-04-13T22:21:21.447Z,3.47
2023-04-13T22:23:47.854Z,3.70
2023-04-13T22:26:14.395Z,3.50
2023-04-13T22:28:40.828Z,3.78
2023-04-13T22:31:08.420Z,3.80
2023-04-13T22:33:38.053Z,2.95
2023-04-13T22:36:17.382Z,3.40
2023-04-13T22:38:43.780Z,2.85
2023-04-13T22:41:10.189Z,3.00
2023-04-13T22:43:36.603Z,3.20
2023-04-13T22:46:03.040Z,3.13
2023-04-13T22:48:29.890Z,3.15
2023-04-13T22:50:58.028Z,3.10
2023-04-13T22:53:25.836Z,3.28
2023-04-13T22:55:52.267Z,3.97
2023-04-13T22:58:18.654Z,3.78
2023-04-13T23:00:45.221Z,4.20
2023-04-13T23:03:15.268Z,4.50
2023-04-13T23:05:41.802Z,4.15
2023-04-13T23:08:08.192Z,4.93
2023-04-13T23:10:34.756Z,4.47
2023-04-13T23:13:01.149Z,4.28
2023-04-13T23:15:27.574Z,3.83
2023-04-13T23:17:54.918Z,4.50
2023-04-13T23:20:22.037Z,5.25
2023-04-13T23:22:48.881Z,4.38
2023-04-13T23:25:15.754Z,4.88
2023-04-13T23:27:42.176Z,4.70
2023-04-13T23:30:08.943Z,4.50
2023-04-13T23:32:35.470Z,4.63
2023-04-13T23:35:01.965Z,4.72
2023-04-13T23:37:28.436Z,4.22
2023-04-13T23:39:54.888Z,5.10
2023-04-13T23:42:21.261Z,4.50
2023-04-13T23:44:48.062Z,4.63
2023-04-13T23:47:14.486Z,4.80
2023-04-13T23:49:41.633Z,4.20
2023-04-13T23:52:08.019Z,5.03
2023-04-13T23:54:34.687Z,4.90
2023-04-13T23:57:01.616Z,4.72
2023-04-13T23:59:27.997Z,4.55
